Time,TemperatureF,DewpointF,PressureIn,WindDirection,WindDirectionDegrees,WindSpeedMPH,WindSpeedGustMPH,Humidity,HourlyPrecipIn,Conditions,Clouds,dailyrainin,SoftwareType,DateUTC
2013-06-02 00:02:00,50.2,38.8,24.22,South,180,24.0,27.0,65,0.00,,,0.00,meteohub,2013-06-02 06:02:00,
2013-06-02 00:07:00,50.2,38.8,24.22,South,180,24.0,27.0,65,0.00,,,0.00,meteohub,2013-06-02 06:07:00,
2013-06-02 00:12:00,50.2,39.2,24.22,South,180,17.0,27.0,66,0.00,,,0.00,meteohub,2013-06-02 06:12:00,
2013-06-02 00:17:00,49.3,39.6,24.22,South,180,22.0,24.0,69,0.00,,,0.00,meteohub,2013-06-02 06:17:00,
2013-06-02 00:22:00,49.8,39.4,24.22,South,180,22.0,25.0,67,0.00,,,0.00,meteohub,2013-06-02 06:22:00,
2013-06-02 00:27:00,49.5,39.4,24.22,South,180,21.0,27.0,68,0.00,,,0.00,meteohub,2013-06-02 06:27:00,
2013-06-02 00:32:00,48.9,39.2,24.22,South,180,22.0,27.0,69,0.00,,,0.00,meteohub,2013-06-02 06:32:00,
2013-06-02 00:37:00,48.7,39.7,24.21,South,180,19.0,27.0,71,0.00,,,0.00,meteohub,2013-06-02 06:37:00,
2013-06-02 00:42:00,49.1,39.0,24.22,South,180,23.0,23.0,68,0.00,,,0.00,meteohub,2013-06-02 06:42:00,
2013-06-02 00:47:00,49.3,39.2,24.21,South,180,19.0,23.0,68,0.00,,,0.00,meteohub,2013-06-02 06:47:00,
2013-06-02 00:52:00,49.3,39.2,24.21,South,180,21.0,23.0,68,0.00,,,0.00,meteohub,2013-06-02 06:52:00,
2013-06-02 00:57:00,49.8,38.8,24.21,South,180,21.0,27.0,66,0.00,,,0.00,meteohub,2013-06-02 06:57:00,
2013-06-02 01:02:00,49.5,39.0,24.21,South,180,23.0,27.0,67,0.00,,,0.00,meteohub,2013-06-02 07:02:00,
2013-06-02 01:07:00,49.5,39.0,24.20,South,180,23.0,27.0,67,0.00,,,0.00,meteohub,2013-06-02 07:07:00,
2013-06-02 01:12:00,48.9,39.6,24.21,South,180,16.0,24.0,70,0.00,,,0.00,meteohub,2013-06-02 07:12:00,
2013-06-02 01:17:00,49.3,39.6,24.20,South,180,19.0,23.0,69,0.00,,,0.00,meteohub,2013-06-02 07:17:00,
2013-06-02 01:22:00,49.1,39.7,24.21,South,180,16.0,23.0,70,0.00,,,0.00,meteohub,2013-06-02 07:22:00,
2013-06-02 01:27:00,49.3,39.6,24.20,South,180,16.0,22.0,69,0.00,,,0.00,meteohub,2013-06-02 07:27:00,
2013-06-02 01:32:00,49.3,39.6,24.20,South,180,15.0,22.0,69,0.00,,,0.00,meteohub,2013-06-02 07:32:00,
2013-06-02 01:37:00,49.1,39.7,24.20,South,180,17.0,21.0,70,0.00,,,0.00,meteohub,2013-06-02 07:37:00,
2013-06-02 01:42:00,49.1,39.7,24.20,South,180,16.0,20.0,70,0.00,,,0.00,meteohub,2013-06-02 07:42:00,
2013-06-02 01:47:00,49.1,39.7,24.19,South,180,20.0,20.0,70,0.00,,,0.00,meteohub,2013-06-02 07:47:00,
2013-06-02 01:52:00,49.1,39.7,24.20,South,180,19.0,20.0,70,0.00,,,0.00,meteohub,2013-06-02 07:52:00,
2013-06-02 01:57:00,49.3,39.6,24.20,South,180,17.0,20.0,69,0.00,,,0.00,meteohub,2013-06-02 07:57:00,
2013-06-02 02:02:00,49.1,39.7,24.20,South,180,18.0,20.0,70,0.00,,,0.00,meteohub,2013-06-02 08:02:00,
2013-06-02 02:07:00,49.1,39.7,24.20,South,180,18.0,20.0,70,0.00,,,0.00,meteohub,2013-06-02 08:07:00,
2013-06-02 02:12:00,48.9,39.6,24.19,South,180,21.0,21.0,70,0.00,,,0.00,meteohub,2013-06-02 08:12:00,
2013-06-02 02:17:00,48.9,39.9,24.20,South,180,15.0,21.0,71,0.00,,,0.00,meteohub,2013-06-02 08:17:00,
2013-06-02 02:22:00,48.7,39.7,24.20,South,180,18.0,21.0,71,0.00,,,0.00,meteohub,2013-06-02 08:22:00,
2013-06-02 02:27:00,48.6,39.9,24.20,SSE,158,13.0,21.0,72,0.00,,,0.00,meteohub,2013-06-02 08:27:00,
2013-06-02 02:32:00,48.6,39.9,24.20,SE,135,14.0,21.0,72,0.00,,,0.00,meteohub,2013-06-02 08:32:00,
2013-06-02 02:37:00,48.4,39.7,24.19,South,180,17.0,21.0,72,0.00,,,0.00,meteohub,2013-06-02 08:37:00,
2013-06-02 02:42:00,48.4,39.7,24.19,South,180,16.0,17.0,72,0.00,,,0.00,meteohub,2013-06-02 08:42:00,
2013-06-02 02:47:00,48.2,39.9,24.19,South,180,11.0,17.0,73,0.00,,,0.00,meteohub,2013-06-02 08:47:00,
2013-06-02 02:52:00,48.0,39.7,24.19,South,180,14.0,17.0,73,0.00,,,0.00,meteohub,2013-06-02 08:52:00,
2013-06-02 02:57:00,48.4,39.7,24.19,South,180,11.0,17.0,72,0.00,,,0.00,meteohub,2013-06-02 08:57:00,
2013-06-02 03:02:00,48.4,39.7,24.19,South,180,9.0,15.0,72,0.00,,,0.00,meteohub,2013-06-02 09:02:00,
2013-06-02 03:07:00,48.4,39.7,24.19,South,180,9.0,14.0,72,0.00,,,0.00,meteohub,2013-06-02 09:07:00,
2013-06-02 03:12:00,47.8,39.9,24.18,South,180,11.0,11.0,74,0.00,,,0.00,meteohub,2013-06-02 09:12:00,
2013-06-02 03:17:00,47.7,40.1,24.18,South,180,9.0,11.0,75,0.00,,,0.00,meteohub,2013-06-02 09:17:00,
2013-06-02 03:22:00,47.8,39.9,24.19,South,180,15.0,15.0,74,0.00,,,0.00,meteohub,2013-06-02 09:22:00,
2013-06-02 03:27:00,48.0,39.7,24.18,South,180,17.0,17.0,73,0.00,,,0.00,meteohub,2013-06-02 09:27:00,
2013-06-02 03:32:00,48.2,39.9,24.18,South,180,17.0,17.0,73,0.00,,,0.00,meteohub,2013-06-02 09:32:00,
2013-06-02 03:37:00,48.0,40.1,24.18,SE,135,13.0,18.0,74,0.00,,,0.00,meteohub,2013-06-02 09:37:00,
2013-06-02 03:42:00,47.8,40.3,24.18,South,180,15.0,18.0,75,0.00,,,0.00,meteohub,2013-06-02 09:42:00,
2013-06-02 03:47:00,47.8,40.3,24.18,South,180,14.0,18.0,75,0.00,,,0.00,meteohub,2013-06-02 09:47:00,
2013-06-02 03:52:00,47.8,40.3,24.18,South,180,12.0,15.0,75,0.00,,,0.00,meteohub,2013-06-02 09:52:00,
2013-06-02 03:57:00,48.0,40.1,24.18,South,180,13.0,15.0,74,0.00,,,0.00,meteohub,2013-06-02 09:57:00,
2013-06-02 04:02:00,48.0,40.5,24.18,South,180,15.0,15.0,75,0.00,,,0.00,meteohub,2013-06-02 10:02:00,
2013-06-02 04:07:00,48.0,40.5,24.18,South,180,15.0,17.0,75,0.00,,,0.00,meteohub,2013-06-02 10:07:00,
2013-06-02 04:12:00,48.0,40.5,24.18,South,180,14.0,17.0,75,0.00,,,0.00,meteohub,2013-06-02 10:12:00,
2013-06-02 04:17:00,48.4,40.5,24.17,South,180,14.0,15.0,74,0.00,,,0.00,meteohub,2013-06-02 10:17:00,
2013-06-02 04:22:00,48.2,40.3,24.18,South,180,11.0,15.0,74,0.00,,,0.00,meteohub,2013-06-02 10:22:00,
2013-06-02 04:27:00,47.7,40.5,24.17,South,180,15.0,15.0,76,0.00,,,0.00,meteohub,2013-06-02 10:27:00,
2013-06-02 04:32:00,47.7,40.8,24.18,South,180,15.0,15.0,77,0.00,,,0.00,meteohub,2013-06-02 10:32:00,
2013-06-02 04:37:00,47.7,40.8,24.18,South,180,12.0,17.0,77,0.00,,,0.00,meteohub,2013-06-02 10:37:00,
2013-06-02 04:42:00,47.7,40.8,24.17,South,180,15.0,17.0,77,0.00,,,0.00,meteohub,2013-06-02 10:42:00,
2013-06-02 04:47:00,47.1,40.6,24.17,South,180,16.0,17.0,78,0.00,,,0.00,meteohub,2013-06-02 10:47:00,
2013-06-02 04:52:00,47.5,40.6,24.17,South,180,17.0,17.0,77,0.00,,,0.00,meteohub,2013-06-02 10:52:00,
2013-06-02 04:57:00,47.8,40.3,24.17,South,180,17.0,21.0,75,0.00,,,0.00,meteohub,2013-06-02 10:57:00,
2013-06-02 05:02:00,48.0,40.1,24.17,SSE,158,17.0,21.0,74,0.00,,,0.00,meteohub,2013-06-02 11:02:00,
2013-06-02 05:07:00,48.0,40.1,24.17,SSE,158,17.0,21.0,74,0.00,,,0.00,meteohub,2013-06-02 11:07:00,
2013-06-02 05:12:00,47.1,40.6,24.17,South,180,15.0,20.0,78,0.00,,,0.00,meteohub,2013-06-02 11:12:00,
2013-06-02 05:17:00,46.8,40.3,24.16,South,180,16.0,17.0,78,0.00,,,0.00,meteohub,2013-06-02 11:17:00,
2013-06-02 05:22:00,46.6,40.5,24.16,South,180,19.0,19.0,79,0.00,,,0.00,meteohub,2013-06-02 11:22:00,
2013-06-02 05:27:00,46.6,40.5,24.17,South,180,16.0,21.0,79,0.00,,,0.00,meteohub,2013-06-02 11:27:00,
2013-06-02 05:32:00,46.2,40.5,24.17,South,180,15.0,21.0,80,0.00,,,0.00,meteohub,2013-06-02 11:32:00,
2013-06-02 05:37:00,46.6,40.5,24.17,South,180,17.0,21.0,79,0.00,,,0.00,meteohub,2013-06-02 11:37:00,
2013-06-02 05:42:00,46.2,40.6,24.16,South,180,17.0,18.0,81,0.00,,,0.00,meteohub,2013-06-02 11:42:00,
2013-06-02 05:47:00,46.2,40.6,24.17,South,180,17.0,18.0,81,0.00,,,0.00,meteohub,2013-06-02 11:47:00,
2013-06-02 05:52:00,45.7,40.8,24.16,SSE,158,16.0,18.0,83,0.00,,,0.00,meteohub,2013-06-02 11:52:00,
2013-06-02 05:57:00,46.0,41.2,24.17,SSE,158,21.0,21.0,83,0.00,,,0.00,meteohub,2013-06-02 11:57:00,
2013-06-02 06:02:00,46.2,41.0,24.16,SE,135,22.0,22.0,82,0.00,,,0.00,meteohub,2013-06-02 12:02:00,
2013-06-02 06:07:00,46.2,41.0,24.16,SE,135,22.0,22.0,82,0.00,,,0.00,meteohub,2013-06-02 12:07:00,
2013-06-02 06:12:00,46.2,41.4,24.16,South,180,17.0,22.0,83,0.00,,,0.00,meteohub,2013-06-02 12:12:00,
2013-06-02 06:17:00,46.2,41.7,24.16,SSE,158,15.0,22.0,84,0.00,,,0.00,meteohub,2013-06-02 12:17:00,
2013-06-02 06:22:00,46.0,41.5,24.16,SSE,158,15.0,22.0,84,0.00,,,0.00,meteohub,2013-06-02 12:22:00,
2013-06-02 06:27:00,45.7,41.4,24.15,SE,135,14.0,21.0,85,0.00,,,0.00,meteohub,2013-06-02 12:27:00,
2013-06-02 06:32:00,45.9,41.5,24.15,SSE,158,16.0,17.0,85,0.00,,,0.00,meteohub,2013-06-02 12:32:00,
2013-06-02 06:37:00,46.0,41.5,24.15,South,180,14.0,19.0,84,0.00,,,0.00,meteohub,2013-06-02 12:37:00,
2013-06-02 06:42:00,46.0,41.7,24.15,SSE,158,17.0,19.0,85,0.00,,,0.00,meteohub,2013-06-02 12:42:00,
2013-06-02 06:47:00,46.2,41.4,24.15,South,180,19.0,19.0,83,0.00,,,0.00,meteohub,2013-06-02 12:47:00,
2013-06-02 06:52:00,46.4,41.9,24.15,South,180,18.0,19.0,84,0.00,,,0.00,meteohub,2013-06-02 12:52:00,
2013-06-02 06:57:00,46.4,42.1,24.15,South,180,15.0,19.0,85,0.00,,,0.00,meteohub,2013-06-02 12:57:00,
2013-06-02 07:02:00,46.4,41.9,24.15,South,180,18.0,19.0,84,0.00,,,0.00,meteohub,2013-06-02 13:02:00,
2013-06-02 07:07:00,46.4,41.9,24.15,South,180,18.0,19.0,84,0.00,,,0.00,meteohub,2013-06-02 13:07:00,
2013-06-02 07:12:00,46.2,41.9,24.15,South,180,17.0,18.0,85,0.00,,,0.00,meteohub,2013-06-02 13:12:00,
2013-06-02 07:17:00,46.2,41.9,24.15,South,180,17.0,18.0,85,0.00,,,0.00,meteohub,2013-06-02 13:17:00,
2013-06-02 07:22:00,47.1,42.3,24.15,South,180,19.0,20.0,83,0.00,,,0.00,meteohub,2013-06-02 13:22:00,
2013-06-02 07:27:00,47.3,42.1,24.14,South,180,19.0,20.0,82,0.00,,,0.00,meteohub,2013-06-02 13:27:00,
2013-06-02 07:32:00,47.3,42.1,24.14,South,180,15.0,20.0,82,0.00,,,0.00,meteohub,2013-06-02 13:32:00,
2013-06-02 07:37:00,47.1,42.6,24.15,South,180,17.0,20.0,84,0.00,,,0.00,meteohub,2013-06-02 13:37:00,
2013-06-02 07:42:00,47.3,42.8,24.14,South,180,19.0,20.0,84,0.00,,,0.00,meteohub,2013-06-02 13:42:00,
2013-06-02 07:47:00,48.9,43.0,24.14,South,180,18.0,19.0,80,0.00,,,0.00,meteohub,2013-06-02 13:47:00,
2013-06-02 07:52:00,48.2,42.6,24.15,South,180,17.0,19.0,81,0.00,,,0.00,meteohub,2013-06-02 13:52:00,
2013-06-02 07:57:00,47.3,42.8,24.15,South,180,15.0,19.0,84,0.00,,,0.00,meteohub,2013-06-02 13:57:00,
2013-06-02 08:02:00,47.1,43.2,24.15,South,180,13.0,19.0,86,0.00,,,0.00,meteohub,2013-06-02 14:02:00,
2013-06-02 08:12:00,47.3,43.3,24.15,South,180,9.0,15.0,86,0.00,,,0.00,meteohub,2013-06-02 14:12:00,
2013-06-02 08:17:00,47.7,43.7,24.15,South,180,10.0,13.0,86,0.00,,,0.00,meteohub,2013-06-02 14:17:00,
2013-06-02 08:22:00,48.7,43.2,24.15,SW,225,8.0,13.0,81,0.00,,,0.00,meteohub,2013-06-02 14:22:00,
2013-06-02 08:27:00,49.1,42.6,24.15,SSW,203,11.0,13.0,78,0.00,,,0.00,meteohub,2013-06-02 14:27:00,
2013-06-02 08:32:00,49.1,42.3,24.15,South,180,10.0,13.0,77,0.00,,,0.00,meteohub,2013-06-02 14:32:00,
2013-06-02 08:37:00,49.1,42.6,24.15,South,180,11.0,12.0,78,0.00,,,0.00,meteohub,2013-06-02 14:37:00,
2013-06-02 08:42:00,48.7,43.2,24.15,South,180,11.0,11.0,81,0.00,,,0.00,meteohub,2013-06-02 14:42:00,
2013-06-02 08:47:00,48.6,43.3,24.15,South,180,11.0,11.0,82,0.00,,,0.00,meteohub,2013-06-02 14:47:00,
2013-06-02 08:52:00,47.8,43.9,24.15,South,180,13.0,13.0,86,0.00,,,0.00,meteohub,2013-06-02 14:52:00,
2013-06-02 08:57:00,47.5,44.1,24.15,South,180,11.0,13.0,88,0.00,,,0.00,meteohub,2013-06-02 14:57:00,
2013-06-02 09:02:00,47.5,44.1,24.15,South,180,10.0,13.0,88,0.00,,,0.00,meteohub,2013-06-02 15:02:00,
2013-06-02 09:07:00,47.5,44.1,24.15,South,180,10.0,13.0,88,0.00,,,0.00,meteohub,2013-06-02 15:07:00,
2013-06-02 09:12:00,47.8,43.5,24.14,SE,135,13.0,13.0,85,0.00,,,0.00,meteohub,2013-06-02 15:12:00,
2013-06-02 09:17:00,48.9,44.6,24.14,SSE,158,12.0,14.0,85,0.00,,,0.00,meteohub,2013-06-02 15:17:00,
2013-06-02 09:22:00,48.7,43.9,24.14,SE,135,15.0,15.0,83,0.00,,,0.00,meteohub,2013-06-02 15:22:00,
2013-06-02 09:27:00,48.9,46.0,24.14,SE,135,15.0,15.0,90,0.00,,,0.00,meteohub,2013-06-02 15:27:00,
2013-06-02 09:32:00,48.7,45.3,24.14,SE,135,17.0,17.0,88,0.00,,,0.00,meteohub,2013-06-02 15:32:00,
2013-06-02 09:37:00,49.3,45.5,24.13,SE,135,17.0,17.0,87,0.00,,,0.00,meteohub,2013-06-02 15:37:00,
2013-06-02 09:42:00,49.6,45.9,24.13,South,180,15.0,17.0,87,0.00,,,0.00,meteohub,2013-06-02 15:42:00,
2013-06-02 09:47:00,49.5,46.4,24.13,South,180,18.0,18.0,89,0.00,,,0.00,meteohub,2013-06-02 15:47:00,
2013-06-02 09:52:00,50.4,47.3,24.13,South,180,17.0,18.0,89,0.00,,,0.00,meteohub,2013-06-02 15:52:00,
2013-06-02 09:57:00,50.7,45.5,24.13,South,180,17.0,19.0,82,0.00,,,0.00,meteohub,2013-06-02 15:57:00,
2013-06-02 10:02:00,50.9,43.9,24.13,SSE,158,16.0,19.0,77,0.00,,,0.00,meteohub,2013-06-02 16:02:00,
2013-06-02 10:07:00,50.9,43.9,24.13,SSE,158,16.0,19.0,77,0.00,,,0.00,meteohub,2013-06-02 16:07:00,
2013-06-02 10:12:00,52.3,42.4,24.13,SSE,158,18.0,18.0,69,0.00,,,0.00,meteohub,2013-06-02 16:12:00,
2013-06-02 10:17:00,51.8,44.4,24.13,South,180,14.0,18.0,76,0.00,,,0.00,meteohub,2013-06-02 16:17:00,
2013-06-02 10:22:00,53.1,44.6,24.12,South,180,15.0,18.0,73,0.00,,,0.00,meteohub,2013-06-02 16:22:00,
2013-06-02 10:32:00,52.7,43.2,24.12,SE,135,17.0,19.0,70,0.00,,,0.00,meteohub,2013-06-02 16:32:00,
2013-06-02 10:37:00,52.5,43.0,24.12,South,180,13.0,19.0,70,0.00,,,0.00,meteohub,2013-06-02 16:37:00,
2013-06-02 10:42:00,53.6,44.8,24.12,South,180,17.0,17.0,72,0.00,,,0.00,meteohub,2013-06-02 16:42:00,
2013-06-02 10:47:00,53.8,42.3,24.11,SE,135,18.0,18.0,65,0.00,,,0.00,meteohub,2013-06-02 16:47:00,
2013-06-02 10:52:00,52.9,43.7,24.11,SSE,158,17.0,19.0,71,0.00,,,0.00,meteohub,2013-06-02 16:52:00,
2013-06-02 10:57:00,52.2,43.0,24.11,SE,135,15.0,20.0,71,0.00,,,0.00,meteohub,2013-06-02 16:57:00,
2013-06-02 11:02:00,51.8,42.6,24.11,SSE,158,17.0,20.0,71,0.00,,,0.00,meteohub,2013-06-02 17:02:00,
2013-06-02 11:07:00,51.8,42.6,24.11,SSE,158,17.0,20.0,71,0.00,,,0.00,meteohub,2013-06-02 17:07:00,
2013-06-02 11:12:00,51.6,43.9,24.10,SE,135,14.0,18.0,75,0.00,,,0.00,meteohub,2013-06-02 17:12:00,
2013-06-02 11:17:00,51.6,44.6,24.10,South,180,11.0,17.0,77,0.00,,,0.00,meteohub,2013-06-02 17:17:00,
2013-06-02 11:22:00,51.4,44.1,24.10,SE,135,11.0,17.0,76,0.00,,,0.00,meteohub,2013-06-02 17:22:00,
2013-06-02 11:27:00,51.8,44.1,24.10,SE,135,10.0,14.0,75,0.00,,,0.00,meteohub,2013-06-02 17:27:00,
2013-06-02 11:37:00,52.2,44.8,24.10,SSE,158,10.0,12.0,76,0.00,,,0.00,meteohub,2013-06-02 17:37:00,
2013-06-02 11:42:00,52.3,43.2,24.10,South,180,11.0,11.0,71,0.00,,,0.00,meteohub,2013-06-02 17:42:00,
2013-06-02 11:47:00,52.2,43.7,24.10,South,180,10.0,11.0,73,0.00,,,0.00,meteohub,2013-06-02 17:47:00,
2013-06-02 11:52:00,52.2,43.7,24.10,South,180,9.0,11.0,73,0.00,,,0.00,meteohub,2013-06-02 17:52:00,
2013-06-02 11:57:00,52.5,44.4,24.09,SSE,158,8.0,11.0,74,0.00,,,0.00,meteohub,2013-06-02 17:57:00,
2013-06-02 12:02:00,52.5,43.3,24.09,SSE,158,8.0,11.0,71,0.00,,,0.00,meteohub,2013-06-02 18:02:00,
2013-06-02 12:07:00,52.5,43.3,24.09,SSE,158,8.0,10.0,71,0.00,,,0.00,meteohub,2013-06-02 18:07:00,
2013-06-02 12:12:00,52.7,43.9,24.09,South,180,5.0,10.0,72,0.00,,,0.00,meteohub,2013-06-02 18:12:00,
2013-06-02 12:17:00,53.1,43.2,24.09,SE,135,4.0,8.0,69,0.00,,,0.00,meteohub,2013-06-02 18:17:00,
2013-06-02 12:22:00,53.8,43.5,24.09,SE,135,5.0,8.0,68,0.00,,,0.00,meteohub,2013-06-02 18:22:00,
2013-06-02 12:27:00,54.1,43.3,24.09,NE,45,5.0,6.0,67,0.00,,,0.00,meteohub,2013-06-02 18:27:00,
2013-06-02 12:32:00,54.1,45.7,24.09,North,0,8.0,8.0,73,0.00,,,0.00,meteohub,2013-06-02 18:32:00,
2013-06-02 12:37:00,53.2,45.1,24.09,NE,45,8.0,10.0,74,0.00,,,0.00,meteohub,2013-06-02 18:37:00,
2013-06-02 12:42:00,53.4,45.3,24.08,NE,45,13.0,13.0,74,0.00,,,0.00,meteohub,2013-06-02 18:42:00,
2013-06-02 12:47:00,52.5,45.1,24.08,North,0,15.0,15.0,76,0.00,,,0.00,meteohub,2013-06-02 18:47:00,
2013-06-02 12:52:00,52.2,44.8,24.08,North,0,16.0,17.0,76,0.00,,,0.00,meteohub,2013-06-02 18:52:00,
2013-06-02 12:57:00,52.2,44.8,24.08,North,0,13.0,17.0,76,0.00,,,0.00,meteohub,2013-06-02 18:57:00,
2013-06-02 13:02:00,52.3,44.6,24.08,North,0,15.0,17.0,75,0.00,,,0.00,meteohub,2013-06-02 19:02:00,
2013-06-02 13:07:00,52.3,44.6,24.07,North,0,15.0,16.0,75,0.00,,,0.00,meteohub,2013-06-02 19:07:00,
2013-06-02 13:12:00,52.2,43.3,24.06,North,0,20.0,20.0,72,0.00,,,0.00,meteohub,2013-06-02 19:12:00,
2013-06-02 13:17:00,52.0,42.8,24.07,NE,45,20.0,20.0,71,0.00,,,0.00,meteohub,2013-06-02 19:17:00,
2013-06-02 13:22:00,52.2,43.0,24.07,NNE,23,19.0,20.0,71,0.00,,,0.00,meteohub,2013-06-02 19:22:00,
2013-06-02 13:27:00,51.6,43.3,24.06,North,0,19.0,20.0,73,0.00,,,0.00,meteohub,2013-06-02 19:27:00,
2013-06-02 13:32:00,51.4,44.1,24.06,North,0,18.0,21.0,76,0.00,,,0.00,meteohub,2013-06-02 19:32:00,
2013-06-02 13:37:00,52.0,43.2,24.06,NE,45,15.0,21.0,72,0.00,,,0.00,meteohub,2013-06-02 19:37:00,
2013-06-02 13:42:00,51.4,42.4,24.06,North,0,17.0,21.0,71,0.00,,,0.00,meteohub,2013-06-02 19:42:00,
2013-06-02 13:47:00,51.3,42.3,24.06,North,0,17.0,20.0,71,0.00,,,0.00,meteohub,2013-06-02 19:47:00,
2013-06-02 13:52:00,51.1,42.8,24.06,North,0,16.0,20.0,73,0.00,,,0.00,meteohub,2013-06-02 19:52:00,
2013-06-02 13:57:00,50.7,42.8,24.06,North,0,15.0,20.0,74,0.00,,,0.00,meteohub,2013-06-02 19:57:00,
2013-06-02 14:02:00,50.7,42.8,24.07,North,0,17.0,20.0,74,0.00,,,0.00,meteohub,2013-06-02 20:02:00,
2013-06-02 14:07:00,50.7,42.8,24.07,North,0,17.0,17.0,74,0.00,,,0.00,meteohub,2013-06-02 20:07:00,
2013-06-02 14:12:00,50.0,43.7,24.07,WNW,293,15.0,17.0,79,0.00,,,0.00,meteohub,2013-06-02 20:12:00,
2013-06-02 14:17:00,49.3,44.1,24.08,North,0,15.0,17.0,82,0.00,,,0.00,meteohub,2013-06-02 20:17:00,
2013-06-02 14:22:00,48.0,45.0,24.08,NW,315,12.0,17.0,89,0.00,,,0.00,meteohub,2013-06-02 20:22:00,
2013-06-02 14:27:00,47.3,45.3,24.08,North,0,14.0,16.0,93,0.02,,,0.02,meteohub,2013-06-02 20:27:00,
2013-06-02 14:32:00,47.3,44.2,24.08,NW,315,12.0,16.0,89,0.06,,,0.06,meteohub,2013-06-02 20:32:00,
2013-06-02 14:37:00,47.1,45.7,24.07,NW,315,13.0,16.0,95,0.07,,,0.07,meteohub,2013-06-02 20:37:00,
2013-06-02 14:42:00,46.9,42.4,24.07,North,0,15.0,16.0,84,0.09,,,0.09,meteohub,2013-06-02 20:42:00,
2013-06-02 14:47:00,47.1,43.7,24.07,North,0,14.0,18.0,88,0.12,,,0.12,meteohub,2013-06-02 20:47:00,
2013-06-02 14:52:00,46.9,44.4,24.07,North,0,13.0,18.0,91,0.13,,,0.13,meteohub,2013-06-02 20:52:00,
2013-06-02 14:57:00,46.6,43.5,24.07,North,0,11.0,18.0,89,0.13,,,0.13,meteohub,2013-06-02 20:57:00,
2013-06-02 15:02:00,46.8,43.7,24.06,North,0,11.0,15.0,89,0.13,,,0.13,meteohub,2013-06-02 21:02:00,
2013-06-02 15:07:00,46.8,43.7,24.06,North,0,11.0,15.0,89,0.13,,,0.13,meteohub,2013-06-02 21:07:00,
2013-06-02 15:12:00,47.1,42.8,24.07,North,0,7.0,12.0,85,0.13,,,0.13,meteohub,2013-06-02 21:12:00,
2013-06-02 15:17:00,47.5,43.9,24.07,NW,315,8.0,11.0,87,0.13,,,0.13,meteohub,2013-06-02 21:17:00,
2013-06-02 15:22:00,47.5,43.9,24.06,NE,45,5.0,11.0,87,0.12,,,0.13,meteohub,2013-06-02 21:22:00,
2013-06-02 15:27:00,47.8,43.9,24.06,NE,45,8.0,11.0,86,0.09,,,0.13,meteohub,2013-06-02 21:27:00,
2013-06-02 15:32:00,47.7,43.3,24.07,East,90,11.0,11.0,85,0.07,,,0.13,meteohub,2013-06-02 21:32:00,
2013-06-02 15:37:00,47.5,42.8,24.07,NE,45,11.0,12.0,84,0.06,,,0.13,meteohub,2013-06-02 21:37:00,
2013-06-02 15:42:00,47.1,43.5,24.07,North,0,7.0,12.0,87,0.04,,,0.13,meteohub,2013-06-02 21:42:00,
2013-06-02 15:47:00,46.9,43.3,24.08,North,0,8.0,11.0,87,0.01,,,0.13,meteohub,2013-06-02 21:47:00,
2013-06-02 15:52:00,46.9,43.0,24.08,North,0,5.0,11.0,86,0.00,,,0.13,meteohub,2013-06-02 21:52:00,
2013-06-02 15:57:00,46.9,43.3,24.07,North,0,9.0,9.0,87,0.00,,,0.13,meteohub,2013-06-02 21:57:00,
2013-06-02 16:02:00,46.6,43.2,24.07,North,0,10.0,10.0,88,0.01,,,0.14,meteohub,2013-06-02 22:02:00,
2013-06-02 16:07:00,46.6,43.2,24.08,North,0,10.0,11.0,88,0.02,,,0.15,meteohub,2013-06-02 22:07:00,
2013-06-02 16:12:00,45.3,44.2,24.07,North,0,18.0,23.0,96,0.02,,,0.15,meteohub,2013-06-02 22:12:00,
2013-06-02 16:17:00,45.0,43.9,24.07,North,0,18.0,23.0,96,0.04,,,0.17,meteohub,2013-06-02 22:17:00,
2013-06-02 16:22:00,45.1,43.5,24.07,North,0,17.0,23.0,94,0.04,,,0.17,meteohub,2013-06-02 22:22:00,
2013-06-02 16:27:00,45.3,45.1,24.08,North,0,17.0,18.0,99,0.04,,,0.17,meteohub,2013-06-02 22:27:00,
2013-06-02 16:32:00,45.1,44.6,24.07,North,0,19.0,19.0,98,0.04,,,0.17,meteohub,2013-06-02 22:32:00,
2013-06-02 16:37:00,45.3,45.1,24.07,North,0,18.0,20.0,99,0.04,,,0.17,meteohub,2013-06-02 22:37:00,
2013-06-02 16:42:00,45.3,45.1,24.06,North,0,14.0,20.0,99,0.04,,,0.17,meteohub,2013-06-02 22:42:00,
2013-06-02 16:47:00,45.1,45.0,24.06,North,0,15.0,20.0,99,0.04,,,0.17,meteohub,2013-06-02 22:47:00,
2013-06-02 16:52:00,45.3,45.1,24.07,NW,315,13.0,18.0,99,0.04,,,0.17,meteohub,2013-06-02 22:52:00,
2013-06-02 16:57:00,45.1,45.0,24.06,NW,315,12.0,15.0,99,0.04,,,0.17,meteohub,2013-06-02 22:57:00,
2013-06-02 17:02:00,45.1,45.0,24.06,NW,315,12.0,15.0,99,0.01,,,0.17,meteohub,2013-06-02 23:02:00,
2013-06-02 17:07:00,45.1,45.0,24.06,NW,315,12.0,13.0,99,0.01,,,0.17,meteohub,2013-06-02 23:07:00,
2013-06-02 17:12:00,45.0,44.4,24.06,NW,315,14.0,14.0,98,0.01,,,0.17,meteohub,2013-06-02 23:12:00,
2013-06-02 17:17:00,44.8,44.1,24.06,NW,315,14.0,15.0,97,0.00,,,0.17,meteohub,2013-06-02 23:17:00,
2013-06-02 17:22:00,45.0,44.2,24.06,NW,315,15.0,15.0,97,0.00,,,0.17,meteohub,2013-06-02 23:22:00,
2013-06-02 17:27:00,44.6,44.4,24.06,NW,315,16.0,16.0,99,0.00,,,0.17,meteohub,2013-06-02 23:27:00,
2013-06-02 17:32:00,44.2,44.1,24.05,NW,315,16.0,16.0,99,0.00,,,0.17,meteohub,2013-06-02 23:32:00,
2013-06-02 17:37:00,44.1,43.9,24.05,NW,315,17.0,17.0,99,0.00,,,0.17,meteohub,2013-06-02 23:37:00,
2013-06-02 17:42:00,43.5,43.3,24.05,NW,315,15.0,17.0,99,0.00,,,0.17,meteohub,2013-06-02 23:42:00,
2013-06-02 17:47:00,43.3,43.2,24.05,NW,315,15.0,17.0,99,0.00,,,0.17,meteohub,2013-06-02 23:47:00,
2013-06-02 17:52:00,43.3,43.2,24.05,NW,315,15.0,17.0,99,0.01,,,0.18,meteohub,2013-06-02 23:52:00,
2013-06-02 17:57:00,43.5,43.3,24.05,NW,315,15.0,17.0,99,0.01,,,0.18,meteohub,2013-06-02 23:57:00,
2013-06-02 18:02:00,43.5,43.3,24.05,NW,315,15.0,16.0,99,0.01,,,0.18,meteohub,2013-06-03 00:02:00,
2013-06-02 18:07:00,43.5,43.3,24.06,NW,315,15.0,16.0,99,0.01,,,0.00,meteohub,2013-06-03 00:07:00,
2013-06-02 18:12:00,43.3,43.2,24.06,NW,315,11.0,15.0,99,0.02,,,0.01,meteohub,2013-06-03 00:12:00,
2013-06-02 18:17:00,43.2,43.0,24.06,NW,315,11.0,15.0,99,0.02,,,0.01,meteohub,2013-06-03 00:17:00,
2013-06-02 18:22:00,42.8,42.6,24.06,NW,315,11.0,15.0,99,0.04,,,0.02,meteohub,2013-06-03 00:22:00,
2013-06-02 18:27:00,43.0,42.8,24.06,NW,315,11.0,12.0,99,0.04,,,0.02,meteohub,2013-06-03 00:27:00,
2013-06-02 18:32:00,43.2,43.0,24.06,NW,315,11.0,12.0,99,0.05,,,0.04,meteohub,2013-06-03 00:32:00,
2013-06-02 18:37:00,43.2,43.0,24.05,NW,315,11.0,13.0,99,0.05,,,0.04,meteohub,2013-06-03 00:37:00,
2013-06-02 18:42:00,43.3,43.2,24.06,NW,315,11.0,13.0,99,0.06,,,0.05,meteohub,2013-06-03 00:42:00,
2013-06-02 18:47:00,43.2,43.0,24.06,NW,315,10.0,12.0,99,0.06,,,0.05,meteohub,2013-06-03 00:47:00,
2013-06-02 18:52:00,43.2,43.0,24.06,NW,315,9.0,11.0,99,0.06,,,0.06,meteohub,2013-06-03 00:52:00,
2013-06-02 18:57:00,43.0,42.8,24.05,NW,315,8.0,11.0,99,0.07,,,0.07,meteohub,2013-06-03 00:57:00,
2013-06-02 19:02:00,43.0,42.8,24.06,NW,315,8.0,11.0,99,0.07,,,0.07,meteohub,2013-06-03 01:02:00,
2013-06-02 19:07:00,43.0,42.8,24.06,NW,315,8.0,10.0,99,0.07,,,0.07,meteohub,2013-06-03 01:07:00,
2013-06-02 19:12:00,43.2,43.0,24.06,NW,315,4.0,9.0,99,0.07,,,0.07,meteohub,2013-06-03 01:12:00,
2013-06-02 19:17:00,43.3,43.2,24.06,NW,315,2.0,8.0,99,0.08,,,0.09,meteohub,2013-06-03 01:17:00,
2013-06-02 19:22:00,43.3,43.2,24.05,NW,315,2.0,8.0,99,0.07,,,0.09,meteohub,2013-06-03 01:22:00,
2013-06-02 19:27:00,43.3,43.2,24.05,NNW,338,2.0,4.0,99,0.07,,,0.09,meteohub,2013-06-03 01:27:00,
2013-06-02 19:32:00,43.3,42.6,24.04,North,0,4.0,4.0,97,0.06,,,0.09,meteohub,2013-06-03 01:32:00,
2013-06-02 19:37:00,43.5,42.8,24.05,NW,315,6.0,6.0,97,0.07,,,0.11,meteohub,2013-06-03 01:37:00,
2013-06-02 19:42:00,43.5,42.8,24.05,NW,315,4.0,6.0,97,0.06,,,0.11,meteohub,2013-06-03 01:42:00,
2013-06-02 19:47:00,43.5,42.4,24.05,North,0,5.0,6.0,96,0.05,,,0.11,meteohub,2013-06-03 01:47:00,
2013-06-02 19:57:00,43.5,42.3,24.04,North,0,8.0,8.0,95,0.04,,,0.11,meteohub,2013-06-03 01:57:00,
2013-06-02 20:02:00,43.5,42.3,24.05,North,0,8.0,8.0,95,0.04,,,0.11,meteohub,2013-06-03 02:02:00,
2013-06-02 20:07:00,43.5,42.3,24.04,North,0,8.0,8.0,95,0.04,,,0.11,meteohub,2013-06-03 02:07:00,
2013-06-02 20:12:00,43.2,42.6,24.04,NW,315,5.0,8.0,98,0.02,,,0.11,meteohub,2013-06-03 02:12:00,
2013-06-02 20:22:00,43.2,42.4,24.04,NW,315,5.0,8.0,97,0.02,,,0.12,meteohub,2013-06-03 02:22:00,
2013-06-02 20:27:00,43.2,42.4,24.05,NW,315,7.0,8.0,97,0.02,,,0.12,meteohub,2013-06-03 02:27:00,
2013-06-02 20:32:00,43.2,43.0,24.04,North,0,10.0,10.0,99,0.02,,,0.12,meteohub,2013-06-03 02:32:00,
2013-06-02 20:37:00,43.0,42.8,24.05,North,0,9.0,10.0,99,0.01,,,0.12,meteohub,2013-06-03 02:37:00,
2013-06-02 20:42:00,42.8,42.6,24.05,North,0,8.0,10.0,99,0.01,,,0.12,meteohub,2013-06-03 02:42:00,
2013-06-02 20:47:00,42.8,42.6,24.05,North,0,11.0,11.0,99,0.01,,,0.12,meteohub,2013-06-03 02:47:00,
2013-06-02 20:52:00,42.8,42.6,24.05,NW,315,9.0,11.0,99,0.01,,,0.12,meteohub,2013-06-03 02:52:00,
2013-06-02 20:57:00,42.6,42.4,24.05,NW,315,8.0,11.0,99,0.01,,,0.12,meteohub,2013-06-03 02:57:00,
2013-06-02 21:02:00,42.6,42.4,24.05,NW,315,8.0,11.0,99,0.01,,,0.12,meteohub,2013-06-03 03:02:00,
2013-06-02 21:07:00,42.6,42.4,24.04,NW,315,8.0,10.0,99,0.01,,,0.12,meteohub,2013-06-03 03:07:00,
2013-06-02 21:12:00,42.6,42.4,24.05,NNW,338,8.0,8.0,99,0.00,,,0.12,meteohub,2013-06-03 03:12:00,
2013-06-02 21:17:00,42.4,42.3,24.05,NW,315,8.0,8.0,99,0.00,,,0.12,meteohub,2013-06-03 03:17:00,
2013-06-02 21:22:00,42.6,42.4,24.05,NW,315,8.0,8.0,99,0.00,,,0.12,meteohub,2013-06-03 03:22:00,
2013-06-02 21:27:00,42.6,42.4,24.05,WNW,293,8.0,8.0,99,0.01,,,0.13,meteohub,2013-06-03 03:27:00,
2013-06-02 21:32:00,42.4,42.3,24.05,NW,315,7.0,8.0,99,0.01,,,0.13,meteohub,2013-06-03 03:32:00,
2013-06-02 21:37:00,42.4,42.3,24.05,NW,315,6.0,8.0,99,0.01,,,0.13,meteohub,2013-06-03 03:37:00,
2013-06-02 21:42:00,42.3,42.1,24.05,NW,315,5.0,8.0,99,0.01,,,0.13,meteohub,2013-06-03 03:42:00,
2013-06-02 21:47:00,42.3,42.1,24.05,NW,315,6.0,8.0,99,0.01,,,0.13,meteohub,2013-06-03 03:47:00,
2013-06-02 21:52:00,42.3,42.1,24.05,NW,315,8.0,8.0,99,0.02,,,0.14,meteohub,2013-06-03 03:52:00,
2013-06-02 21:57:00,42.6,42.4,24.05,NW,315,8.0,8.0,99,0.02,,,0.14,meteohub,2013-06-03 03:57:00,
2013-06-02 22:02:00,42.6,42.4,24.05,NW,315,12.0,12.0,99,0.02,,,0.14,meteohub,2013-06-03 04:02:00,
2013-06-02 22:07:00,42.6,42.4,24.05,NW,315,12.0,12.0,99,0.04,,,0.15,meteohub,2013-06-03 04:07:00,
2013-06-02 22:12:00,42.3,42.1,24.05,NW,315,14.0,15.0,99,0.08,,,0.20,meteohub,2013-06-03 04:12:00,
2013-06-02 22:17:00,42.3,42.1,24.05,NW,315,17.0,17.0,99,0.08,,,0.20,meteohub,2013-06-03 04:17:00,
2013-06-02 22:27:00,42.3,42.1,24.05,NW,315,17.0,17.0,99,0.09,,,0.22,meteohub,2013-06-03 04:27:00,
2013-06-02 22:32:00,41.9,41.7,24.05,North,0,18.0,18.0,99,0.11,,,0.24,meteohub,2013-06-03 04:32:00,
2013-06-02 22:37:00,41.9,41.7,24.06,North,0,15.0,21.0,99,0.12,,,0.25,meteohub,2013-06-03 04:37:00,
2013-06-02 22:42:00,41.5,41.4,24.05,NNW,338,21.0,21.0,99,0.12,,,0.25,meteohub,2013-06-03 04:42:00,
2013-06-02 22:47:00,41.2,41.0,24.04,WNW,293,27.0,27.0,99,0.12,,,0.26,meteohub,2013-06-03 04:47:00,
2013-06-02 22:52:00,41.0,40.8,24.04,NW,315,27.0,31.0,99,0.12,,,0.26,meteohub,2013-06-03 04:52:00,
2013-06-02 22:57:00,41.0,40.8,24.05,NW,315,27.0,31.0,99,0.13,,,0.27,meteohub,2013-06-03 04:57:00,
2013-06-02 23:02:00,41.2,41.0,24.05,NW,315,28.0,31.0,99,0.12,,,0.27,meteohub,2013-06-03 05:02:00,
2013-06-02 23:07:00,41.2,41.0,24.04,NW,315,28.0,30.0,99,0.12,,,0.27,meteohub,2013-06-03 05:07:00,
2013-06-02 23:12:00,40.8,40.6,24.04,North,0,32.0,32.0,99,0.08,,,0.28,meteohub,2013-06-03 05:12:00,
2013-06-02 23:17:00,40.8,40.6,24.04,NNW,338,29.0,32.0,99,0.07,,,0.28,meteohub,2013-06-03 05:17:00,
2013-06-02 23:22:00,40.8,40.6,24.04,NW,315,30.0,32.0,99,0.07,,,0.28,meteohub,2013-06-03 05:22:00,
2013-06-02 23:27:00,40.5,40.3,24.03,NNW,338,31.0,32.0,99,0.07,,,0.30,meteohub,2013-06-03 05:27:00,
2013-06-02 23:32:00,40.3,40.1,24.03,NW,315,30.0,31.0,99,0.07,,,0.31,meteohub,2013-06-03 05:32:00,
2013-06-02 23:37:00,40.3,40.1,24.03,NW,315,28.0,32.0,99,0.06,,,0.31,meteohub,2013-06-03 05:37:00,
2013-06-02 23:42:00,40.3,40.1,24.03,WNW,293,27.0,33.0,99,0.06,,,0.31,meteohub,2013-06-03 05:42:00,
2013-06-02 23:47:00,40.5,40.3,24.03,NW,315,30.0,33.0,99,0.05,,,0.31,meteohub,2013-06-03 05:47:00,
2013-06-02 23:52:00,40.3,40.1,24.03,NNW,338,30.0,33.0,99,0.05,,,0.31,meteohub,2013-06-03 05:52:00,
2013-06-02 23:57:00,40.1,39.9,24.03,NNW,338,33.0,34.0,99,0.04,,,0.31,meteohub,2013-06-03 05:57:00,